This is the latest recevied weather packets stored in our database for station/object K5IDL. If no packets are shown the sender has not sent any weather packets the latest 10 day(s).
| Time | Temp. | Humidity | Pressure | Rain* | Wind** | Luminosity | Snow |
|---|---|---|---|---|---|---|---|
| 1777818569 | 23.33° C | 45% | 1022.2 hPa | 0 mm | - | 329 W/m² | - |
| 1777818267 | 23.33° C | 47% | 1021.9 hPa | 0 mm | - | 313 W/m² | - |
| 1777817962 | 22.78° C | 49% | 1021.7 hPa | 0 mm | - | 308 W/m² | - |
| 1777817660 | 22.78° C | 48% | 1021.8 hPa | 0 mm | - | 284 W/m² | - |
| 1777817357 | 22.78° C | 49% | 1022 hPa | 0 mm | - | 269 W/m² | - |
| 1777817054 | 22.78° C | 50% | 1021.9 hPa | 0 mm | - | 255 W/m² | - |
| 1777816749 | 21.67° C | 52% | 1022 hPa | 0 mm | - | 240 W/m² | - |
| 1777816448 | 21.11° C | 52% | 1021.9 hPa | 0 mm | - | 224 W/m² | - |
| 1777816145 | 21.11° C | 54% | 1021.9 hPa | 0 mm | - | 211 W/m² | - |
| 1777815843 | 21.11° C | 52% | 1022 hPa | 0 mm | - | 197 W/m² | - |
| 1777815540 | 20.56° C | 55% | 1022 hPa | 0 mm | - | 184 W/m² | - |
| 1777815237 | 20° C | 56% | 1021.7 hPa | 0 mm | - | 171 W/m² | - |
| 1777814933 | 20° C | 56% | 1022.1 hPa | 0 mm | - | 156 W/m² | - |
| 1777814630 | 20° C | 57% | 1021.8 hPa | 0 mm | - | 144 W/m² | - |
| 1777814327 | 20° C | 57% | 1021.6 hPa | 0 mm | - | 131 W/m² | - |
| 1777814023 | 19.44° C | 57% | 1021.7 hPa | 0 mm | - | 119 W/m² | - |
| 1777813721 | 19.44° C | 58% | 1021.6 hPa | 0 mm | - | 108 W/m² | - |
| 1777813418 | 19.44° C | 58% | 1021.8 hPa | 0 mm | - | 97 W/m² | - |
| 1777813115 | 18.89° C | 61% | 1021.6 hPa | 0 mm | - | 87 W/m² | - |
| 1777812814 | 18.89° C | 60% | 1021.7 hPa | 0 mm | - | 78 W/m² | - |
| 1777812510 | 18.33° C | 61% | 1021.7 hPa | 0 mm | - | 69 W/m² | - |
| 1777812208 | 18.33° C | 63% | 1021.7 hPa | 0 mm | - | 60 W/m² | - |
| 1777811906 | 18.33° C | 62% | 1021.6 hPa | 0 mm | - | 52 W/m² | - |
| 1777811604 | 17.22° C | 65% | 1021.5 hPa | 0 mm | - | 44 W/m² | - |
| 1777811299 | 16.11° C | 68% | 1021.6 hPa | 0 mm | - | 37 W/m² | - |
* Rain latest hour (hover to see other rain measurements)
** Current wind speed in m/s (hover to see current wind gust speed)